sensor_id;sensor_type;location;lat;lon;timestamp;P1;durP1;ratioP1;P2;durP2;ratioP2
71381;SDS011;60099;45.660;13.804;2022-09-09T00:09:54;8.13;;;5.53;;
71381;SDS011;60099;45.660;13.804;2022-09-09T00:12:48;8.80;;;5.50;;
71381;SDS011;60099;45.660;13.804;2022-09-09T00:15:42;9.40;;;5.45;;
71381;SDS011;60099;45.660;13.804;2022-09-09T00:20:58;7.65;;;4.72;;
71381;SDS011;60099;45.660;13.804;2022-09-09T00:23:32;7.82;;;5.20;;
71381;SDS011;60099;45.660;13.804;2022-09-09T00:31:54;9.43;;;5.55;;
71381;SDS011;60099;45.660;13.804;2022-09-09T00:34:25;9.82;;;5.63;;
71381;SDS011;60099;45.660;13.804;2022-09-09T00:36:53;7.72;;;4.82;;
71381;SDS011;60099;45.660;13.804;2022-09-09T00:44:32;6.43;;;4.05;;
71381;SDS011;60099;45.660;13.804;2022-09-09T00:57:33;7.10;;;3.97;;
71381;SDS011;60099;45.660;13.804;2022-09-09T01:00:22;6.95;;;3.78;;
71381;SDS011;60099;45.660;13.804;2022-09-09T01:05:48;7.22;;;4.00;;
71381;SDS011;60099;45.660;13.804;2022-09-09T01:11:22;8.45;;;3.75;;
71381;SDS011;60099;45.660;13.804;2022-09-09T01:14:00;8.45;;;3.78;;
71381;SDS011;60099;45.660;13.804;2022-09-09T01:16:35;5.85;;;3.50;;
71381;SDS011;60099;45.660;13.804;2022-09-09T01:19:01;7.15;;;3.63;;
71381;SDS011;60099;45.660;13.804;2022-09-09T01:26:45;8.00;;;3.50;;
71381;SDS011;60099;45.660;13.804;2022-09-09T01:29:14;7.57;;;3.30;;
71381;SDS011;60099;45.660;13.804;2022-09-09T01:31:42;8.55;;;3.80;;
71381;SDS011;60099;45.660;13.804;2022-09-09T01:34:25;7.55;;;4.07;;
71381;SDS011;60099;45.660;13.804;2022-09-09T01:36:58;6.72;;;3.60;;
71381;SDS011;60099;45.660;13.804;2022-09-09T01:39:34;8.38;;;3.70;;
71381;SDS011;60099;45.660;13.804;2022-09-09T01:42:03;9.50;;;3.90;;
71381;SDS011;60099;45.660;13.804;2022-09-09T01:44:31;7.35;;;3.58;;
71381;SDS011;60099;45.660;13.804;2022-09-09T01:46:57;6.65;;;3.70;;
71381;SDS011;60099;45.660;13.804;2022-09-09T01:49:23;9.23;;;3.55;;
71381;SDS011;60099;45.660;13.804;2022-09-09T01:51:50;8.90;;;3.60;;
71381;SDS011;60099;45.660;13.804;2022-09-09T01:54:19;7.57;;;3.97;;
71381;SDS011;60099;45.660;13.804;2022-09-09T01:57:11;8.32;;;4.05;;
71381;SDS011;60099;45.660;13.804;2022-09-09T02:05:10;8.18;;;3.90;;
71381;SDS011;60099;45.660;13.804;2022-09-09T02:07:47;8.25;;;4.10;;
71381;SDS011;60099;45.660;13.804;2022-09-09T02:11:15;7.07;;;4.00;;
71381;SDS011;60099;45.660;13.804;2022-09-09T02:13:10;8.23;;;4.28;;
71381;SDS011;60099;45.660;13.804;2022-09-09T02:15:43;9.75;;;4.60;;
71381;SDS011;60099;45.660;13.804;2022-09-09T02:18:30;6.85;;;4.00;;
71381;SDS011;60099;45.660;13.804;2022-09-09T02:21:03;6.30;;;3.90;;
71381;SDS011;60099;45.660;13.804;2022-09-09T02:23:30;7.55;;;3.38;;
71381;SDS011;60099;45.660;13.804;2022-09-09T02:25:58;8.45;;;3.42;;
71381;SDS011;60099;45.660;13.804;2022-09-09T02:28:25;5.15;;;3.03;;
71381;SDS011;60099;45.660;13.804;2022-09-09T02:30:53;5.68;;;2.92;;
71381;SDS011;60099;45.660;13.804;2022-09-09T02:33:22;4.28;;;2.88;;
71381;SDS011;60099;45.660;13.804;2022-09-09T02:35:51;6.32;;;3.10;;
71381;SDS011;60099;45.660;13.804;2022-09-09T02:38:19;4.68;;;2.67;;
71381;SDS011;60099;45.660;13.804;2022-09-09T02:40:49;5.47;;;2.97;;
71381;SDS011;60099;45.660;13.804;2022-09-09T02:43:15;7.65;;;3.20;;
71381;SDS011;60099;45.660;13.804;2022-09-09T02:45:50;5.78;;;3.17;;
71381;SDS011;60099;45.660;13.804;2022-09-09T02:48:30;5.90;;;3.28;;
71381;SDS011;60099;45.660;13.804;2022-09-09T02:51:06;8.10;;;3.53;;
71381;SDS011;60099;45.660;13.804;2022-09-09T02:53:40;5.57;;;3.13;;
71381;SDS011;60099;45.660;13.804;2022-09-09T02:56:22;5.88;;;3.00;;
71381;SDS011;60099;45.660;13.804;2022-09-09T02:58:53;5.05;;;2.88;;
71381;SDS011;60099;45.660;13.804;2022-09-09T03:01:19;6.22;;;2.72;;
71381;SDS011;60099;45.660;13.804;2022-09-09T03:03:46;4.30;;;2.60;;
71381;SDS011;60099;45.660;13.804;2022-09-09T03:06:11;7.80;;;2.80;;
71381;SDS011;60099;45.660;13.804;2022-09-09T03:19:26;5.32;;;2.85;;
71381;SDS011;60099;45.660;13.804;2022-09-09T03:21:53;5.10;;;2.80;;
71381;SDS011;60099;45.660;13.804;2022-09-09T03:24:19;5.07;;;2.85;;
71381;SDS011;60099;45.660;13.804;2022-09-09T03:26:45;5.85;;;2.65;;
71381;SDS011;60099;45.660;13.804;2022-09-09T03:29:17;4.82;;;2.70;;
71381;SDS011;60099;45.660;13.804;2022-09-09T03:31:43;4.68;;;2.80;;
71381;SDS011;60099;45.660;13.804;2022-09-09T03:34:10;4.90;;;2.70;;
71381;SDS011;60099;45.660;13.804;2022-09-09T03:36:36;5.30;;;2.55;;
71381;SDS011;60099;45.660;13.804;2022-09-09T03:39:02;6.35;;;3.30;;
71381;SDS011;60099;45.660;13.804;2022-09-09T03:41:30;4.90;;;2.50;;
71381;SDS011;60099;45.660;13.804;2022-09-09T03:43:55;4.38;;;2.50;;
71381;SDS011;60099;45.660;13.804;2022-09-09T03:46:23;5.22;;;2.70;;
71381;SDS011;60099;45.660;13.804;2022-09-09T03:48:51;5.65;;;2.75;;
71381;SDS011;60099;45.660;13.804;2022-09-09T03:51:17;5.63;;;2.75;;
71381;SDS011;60099;45.660;13.804;2022-09-09T03:53:44;4.45;;;2.63;;
71381;SDS011;60099;45.660;13.804;2022-09-09T03:56:09;5.18;;;2.90;;
71381;SDS011;60099;45.660;13.804;2022-09-09T03:58:36;5.18;;;2.83;;
71381;SDS011;60099;45.660;13.804;2022-09-09T04:01:03;5.88;;;3.00;;
71381;SDS011;60099;45.660;13.804;2022-09-09T04:03:31;7.18;;;2.97;;
71381;SDS011;60099;45.660;13.804;2022-09-09T04:05:58;5.60;;;3.10;;
71381;SDS011;60099;45.660;13.804;2022-09-09T04:08:25;7.45;;;3.03;;
71381;SDS011;60099;45.660;13.804;2022-09-09T04:10:52;6.15;;;2.95;;
71381;SDS011;60099;45.660;13.804;2022-09-09T04:13:22;6.85;;;3.15;;
71381;SDS011;60099;45.660;13.804;2022-09-09T04:15:52;7.90;;;3.83;;
71381;SDS011;60099;45.660;13.804;2022-09-09T04:18:22;6.18;;;3.33;;
71381;SDS011;60099;45.660;13.804;2022-09-09T04:20:49;5.15;;;3.13;;
71381;SDS011;60099;45.660;13.804;2022-09-09T04:23:16;5.47;;;3.15;;
71381;SDS011;60099;45.660;13.804;2022-09-09T04:25:49;4.65;;;2.92;;
71381;SDS011;60099;45.660;13.804;2022-09-09T04:28:17;5.05;;;3.33;;
71381;SDS011;60099;45.660;13.804;2022-09-09T04:30:44;6.10;;;3.45;;
71381;SDS011;60099;45.660;13.804;2022-09-09T04:33:10;5.00;;;3.28;;
71381;SDS011;60099;45.660;13.804;2022-09-09T04:35:37;5.32;;;3.22;;
71381;SDS011;60099;45.660;13.804;2022-09-09T04:38:04;6.57;;;3.30;;
71381;SDS011;60099;45.660;13.804;2022-09-09T04:40:34;6.80;;;3.33;;
71381;SDS011;60099;45.660;13.804;2022-09-09T04:43:02;6.90;;;3.33;;
71381;SDS011;60099;45.660;13.804;2022-09-09T04:45:31;5.88;;;3.15;;
71381;SDS011;60099;45.660;13.804;2022-09-09T04:47:57;7.40;;;3.22;;
71381;SDS011;60099;45.660;13.804;2022-09-09T04:50:23;5.18;;;3.25;;
71381;SDS011;60099;45.660;13.804;2022-09-09T04:52:49;6.70;;;3.17;;
71381;SDS011;60099;45.660;13.804;2022-09-09T04:55:15;6.38;;;3.22;;
71381;SDS011;60099;45.660;13.804;2022-09-09T04:57:41;6.55;;;3.08;;
71381;SDS011;60099;45.660;13.804;2022-09-09T05:00:07;7.32;;;3.17;;
71381;SDS011;60099;45.660;13.804;2022-09-09T05:02:37;7.30;;;3.17;;
71381;SDS011;60099;45.660;13.804;2022-09-09T05:05:03;7.32;;;3.40;;
71381;SDS011;60099;45.660;13.804;2022-09-09T05:07:30;5.65;;;3.35;;
71381;SDS011;60099;45.660;13.804;2022-09-09T05:09:56;6.20;;;3.10;;
71381;SDS011;60099;45.660;13.804;2022-09-09T05:12:22;6.07;;;3.28;;
71381;SDS011;60099;45.660;13.804;2022-09-09T05:14:50;6.90;;;3.13;;
71381;SDS011;60099;45.660;13.804;2022-09-09T05:17:19;4.80;;;3.08;;
71381;SDS011;60099;45.660;13.804;2022-09-09T05:19:45;5.65;;;3.05;;
71381;SDS011;60099;45.660;13.804;2022-09-09T05:22:11;7.03;;;3.22;;
71381;SDS011;60099;45.660;13.804;2022-09-09T05:24:37;6.63;;;3.38;;
71381;SDS011;60099;45.660;13.804;2022-09-09T05:27:03;5.55;;;3.30;;
71381;SDS011;60099;45.660;13.804;2022-09-09T05:29:31;5.63;;;3.35;;
71381;SDS011;60099;45.660;13.804;2022-09-09T05:31:58;5.78;;;3.00;;
71381;SDS011;60099;45.660;13.804;2022-09-09T05:34:25;5.72;;;3.05;;
71381;SDS011;60099;45.660;13.804;2022-09-09T05:36:50;6.25;;;3.22;;
71381;SDS011;60099;45.660;13.804;2022-09-09T05:39:17;5.43;;;3.20;;
71381;SDS011;60099;45.660;13.804;2022-09-09T05:41:43;4.90;;;3.13;;
71381;SDS011;60099;45.660;13.804;2022-09-09T05:44:09;5.18;;;3.13;;
71381;SDS011;60099;45.660;13.804;2022-09-09T05:46:34;5.03;;;3.08;;
71381;SDS011;60099;45.660;13.804;2022-09-09T05:49:01;5.70;;;3.13;;
71381;SDS011;60099;45.660;13.804;2022-09-09T05:51:27;4.38;;;2.85;;
71381;SDS011;60099;45.660;13.804;2022-09-09T05:53:55;6.13;;;3.13;;
71381;SDS011;60099;45.660;13.804;2022-09-09T05:56:24;4.68;;;3.10;;
71381;SDS011;60099;45.660;13.804;2022-09-09T05:58:52;6.85;;;2.90;;
71381;SDS011;60099;45.660;13.804;2022-09-09T06:01:20;5.38;;;3.00;;
71381;SDS011;60099;45.660;13.804;2022-09-09T06:03:56;5.45;;;2.92;;
71381;SDS011;60099;45.660;13.804;2022-09-09T06:06:23;6.38;;;3.20;;
71381;SDS011;60099;45.660;13.804;2022-09-09T06:08:55;6.47;;;3.05;;
71381;SDS011;60099;45.660;13.804;2022-09-09T06:11:26;6.10;;;3.33;;
71381;SDS011;60099;45.660;13.804;2022-09-09T06:13:53;6.32;;;3.22;;
71381;SDS011;60099;45.660;13.804;2022-09-09T06:16:20;7.28;;;3.35;;
71381;SDS011;60099;45.660;13.804;2022-09-09T06:18:50;6.35;;;2.67;;
71381;SDS011;60099;45.660;13.804;2022-09-09T06:21:19;5.00;;;2.80;;
71381;SDS011;60099;45.660;13.804;2022-09-09T06:23:49;7.55;;;3.45;;
71381;SDS011;60099;45.660;13.804;2022-09-09T06:28:51;5.78;;;3.20;;
71381;SDS011;60099;45.660;13.804;2022-09-09T06:31:19;5.55;;;3.28;;
71381;SDS011;60099;45.660;13.804;2022-09-09T06:33:46;6.80;;;3.20;;
71381;SDS011;60099;45.660;13.804;2022-09-09T06:36:18;6.03;;;2.92;;
71381;SDS011;60099;45.660;13.804;2022-09-09T06:38:48;6.13;;;2.85;;
71381;SDS011;60099;45.660;13.804;2022-09-09T06:41:15;6.60;;;3.15;;
71381;SDS011;60099;45.660;13.804;2022-09-09T06:43:43;5.75;;;2.97;;
71381;SDS011;60099;45.660;13.804;2022-09-09T06:46:14;6.47;;;2.78;;
71381;SDS011;60099;45.660;13.804;2022-09-09T06:48:44;5.40;;;2.90;;
71381;SDS011;60099;45.660;13.804;2022-09-09T06:53:42;6.20;;;3.22;;
71381;SDS011;60099;45.660;13.804;2022-09-09T06:58:41;4.78;;;2.78;;
71381;SDS011;60099;45.660;13.804;2022-09-09T07:01:09;4.80;;;2.88;;
71381;SDS011;60099;45.660;13.804;2022-09-09T07:03:40;5.85;;;2.95;;
71381;SDS011;60099;45.660;13.804;2022-09-09T07:06:12;4.35;;;2.60;;
71381;SDS011;60099;45.660;13.804;2022-09-09T07:08:44;4.35;;;2.78;;
71381;SDS011;60099;45.660;13.804;2022-09-09T07:11:13;6.80;;;3.10;;
71381;SDS011;60099;45.660;13.804;2022-09-09T07:13:39;6.43;;;3.00;;
71381;SDS011;60099;45.660;13.804;2022-09-09T07:16:06;5.18;;;2.70;;
71381;SDS011;60099;45.660;13.804;2022-09-09T07:18:33;5.65;;;2.60;;
71381;SDS011;60099;45.660;13.804;2022-09-09T07:37:24;7.22;;;2.70;;
71381;SDS011;60099;45.660;13.804;2022-09-09T07:39:49;8.45;;;2.90;;
71381;SDS011;60099;45.660;13.804;2022-09-09T07:42:16;6.60;;;2.63;;
71381;SDS011;60099;45.660;13.804;2022-09-09T07:44:44;5.57;;;2.85;;
71381;SDS011;60099;45.660;13.804;2022-09-09T07:47:10;6.57;;;2.88;;
71381;SDS011;60099;45.660;13.804;2022-09-09T07:49:36;6.28;;;3.13;;
71381;SDS011;60099;45.660;13.804;2022-09-09T07:52:01;6.07;;;3.20;;
71381;SDS011;60099;45.660;13.804;2022-09-09T07:54:28;7.10;;;3.30;;
71381;SDS011;60099;45.660;13.804;2022-09-09T07:56:54;5.75;;;2.92;;
71381;SDS011;60099;45.660;13.804;2022-09-09T07:59:20;7.47;;;3.08;;
71381;SDS011;60099;45.660;13.804;2022-09-09T08:01:50;4.93;;;3.05;;
71381;SDS011;60099;45.660;13.804;2022-09-09T08:04:20;8.07;;;3.10;;
71381;SDS011;60099;45.660;13.804;2022-09-09T08:06:48;8.40;;;3.47;;
71381;SDS011;60099;45.660;13.804;2022-09-09T08:09:19;7.40;;;3.20;;
71381;SDS011;60099;45.660;13.804;2022-09-09T08:11:45;8.25;;;3.38;;
71381;SDS011;60099;45.660;13.804;2022-09-09T08:14:12;6.50;;;3.42;;
71381;SDS011;60099;45.660;13.804;2022-09-09T08:16:39;9.52;;;3.40;;
71381;SDS011;60099;45.660;13.804;2022-09-09T08:19:06;7.10;;;3.50;;
71381;SDS011;60099;45.660;13.804;2022-09-09T08:21:33;8.98;;;4.07;;
71381;SDS011;60099;45.660;13.804;2022-09-09T08:24:01;7.30;;;3.50;;
71381;SDS011;60099;45.660;13.804;2022-09-09T08:26:31;9.60;;;3.67;;
71381;SDS011;60099;45.660;13.804;2022-09-09T08:29:03;7.82;;;3.80;;
71381;SDS011;60099;45.660;13.804;2022-09-09T08:31:33;8.02;;;3.67;;
71381;SDS011;60099;45.660;13.804;2022-09-09T08:34:00;9.13;;;4.20;;
71381;SDS011;60099;45.660;13.804;2022-09-09T08:36:29;6.10;;;3.80;;
71381;SDS011;60099;45.660;13.804;2022-09-09T08:39:00;7.93;;;3.83;;
71381;SDS011;60099;45.660;13.804;2022-09-09T08:41:33;6.32;;;3.40;;
71381;SDS011;60099;45.660;13.804;2022-09-09T08:47:20;6.68;;;3.67;;
71381;SDS011;60099;45.660;13.804;2022-09-09T08:57:54;8.10;;;3.75;;
71381;SDS011;60099;45.660;13.804;2022-09-09T09:00:23;6.95;;;3.55;;
71381;SDS011;60099;45.660;13.804;2022-09-09T09:05:57;7.15;;;3.88;;
71381;SDS011;60099;45.660;13.804;2022-09-09T09:11:04;5.28;;;3.50;;
71381;SDS011;60099;45.660;13.804;2022-09-09T09:19:13;8.10;;;3.65;;
71381;SDS011;60099;45.660;13.804;2022-09-09T09:24:45;7.20;;;3.65;;
71381;SDS011;60099;45.660;13.804;2022-09-09T09:27:31;7.53;;;3.55;;
71381;SDS011;60099;45.660;13.804;2022-09-09T09:29:59;8.48;;;3.60;;
71381;SDS011;60099;45.660;13.804;2022-09-09T09:32:29;9.13;;;4.20;;
71381;SDS011;60099;45.660;13.804;2022-09-09T09:34:58;8.13;;;4.30;;
71381;SDS011;60099;45.660;13.804;2022-09-09T09:40:23;17.92;;;6.47;;
71381;SDS011;60099;45.660;13.804;2022-09-09T09:43:00;19.50;;;5.40;;
71381;SDS011;60099;45.660;13.804;2022-09-09T09:48:08;8.95;;;3.30;;
71381;SDS011;60099;45.660;13.804;2022-09-09T09:50:39;8.30;;;2.88;;
71381;SDS011;60099;45.660;13.804;2022-09-09T09:53:21;6.22;;;2.20;;
71381;SDS011;60099;45.660;13.804;2022-09-09T09:58:23;4.72;;;1.88;;
71381;SDS011;60099;45.660;13.804;2022-09-09T10:00:53;4.03;;;1.80;;
71381;SDS011;60099;45.660;13.804;2022-09-09T10:03:23;3.80;;;1.65;;
71381;SDS011;60099;45.660;13.804;2022-09-09T10:05:54;3.53;;;1.35;;
71381;SDS011;60099;45.660;13.804;2022-09-09T10:08:21;5.88;;;1.70;;
71381;SDS011;60099;45.660;13.804;2022-09-09T10:16:58;2.75;;;1.50;;
71381;SDS011;60099;45.660;13.804;2022-09-09T10:19:42;3.78;;;1.67;;
71381;SDS011;60099;45.660;13.804;2022-09-09T10:22:26;3.05;;;1.38;;
71381;SDS011;60099;45.660;13.804;2022-09-09T10:25:02;4.32;;;1.60;;
71381;SDS011;60099;45.660;13.804;2022-09-09T10:30:24;2.72;;;1.55;;
71381;SDS011;60099;45.660;13.804;2022-09-09T10:33:21;2.63;;;1.48;;
71381;SDS011;60099;45.660;13.804;2022-09-09T10:36:21;1.65;;;1.40;;
71381;SDS011;60099;45.660;13.804;2022-09-09T11:00:05;1.90;;;1.70;;
71381;SDS011;60099;45.660;13.804;2022-09-09T11:02:40;2.97;;;1.95;;
71381;SDS011;60099;45.660;13.804;2022-09-09T11:05:17;4.18;;;2.10;;
71381;SDS011;60099;45.660;13.804;2022-09-09T11:13:32;3.90;;;2.10;;
71381;SDS011;60099;45.660;13.804;2022-09-09T11:19:02;5.72;;;2.60;;
71381;SDS011;60099;45.660;13.804;2022-09-09T11:21:46;4.85;;;2.40;;
71381;SDS011;60099;45.660;13.804;2022-09-09T11:26:52;4.07;;;2.45;;
71381;SDS011;60099;45.660;13.804;2022-09-09T11:29:34;3.80;;;2.50;;
71381;SDS011;60099;45.660;13.804;2022-09-09T11:45:39;3.88;;;1.98;;
71381;SDS011;60099;45.660;13.804;2022-09-09T11:48:21;4.20;;;2.03;;
71381;SDS011;60099;45.660;13.804;2022-09-09T11:53:52;3.17;;;2.00;;
71381;SDS011;60099;45.660;13.804;2022-09-09T11:56:47;2.40;;;1.63;;
71381;SDS011;60099;45.660;13.804;2022-09-09T12:07:30;2.60;;;1.55;;
71381;SDS011;60099;45.660;13.804;2022-09-09T12:12:32;3.25;;;1.73;;
71381;SDS011;60099;45.660;13.804;2022-09-09T12:15:01;5.18;;;2.00;;
71381;SDS011;60099;45.660;13.804;2022-09-09T12:20:33;4.32;;;1.80;;
71381;SDS011;60099;45.660;13.804;2022-09-09T12:28:22;4.03;;;2.05;;
71381;SDS011;60099;45.660;13.804;2022-09-09T12:31:51;3.15;;;1.95;;
71381;SDS011;60099;45.660;13.804;2022-09-09T12:34:03;4.35;;;2.00;;
71381;SDS011;60099;45.660;13.804;2022-09-09T12:36:42;4.10;;;1.80;;
71381;SDS011;60099;45.660;13.804;2022-09-09T12:39:18;2.90;;;1.80;;
71381;SDS011;60099;45.660;13.804;2022-09-09T12:41:50;2.72;;;1.88;;
71381;SDS011;60099;45.660;13.804;2022-09-09T12:44:21;3.28;;;2.05;;
71381;SDS011;60099;45.660;13.804;2022-09-09T12:46:48;3.05;;;1.85;;
71381;SDS011;60099;45.660;13.804;2022-09-09T12:49:30;3.22;;;2.00;;
71381;SDS011;60099;45.660;13.804;2022-09-09T12:52:00;3.80;;;1.70;;
71381;SDS011;60099;45.660;13.804;2022-09-09T12:54:29;3.35;;;1.60;;
71381;SDS011;60099;45.660;13.804;2022-09-09T12:56:55;1.90;;;1.48;;
71381;SDS011;60099;45.660;13.804;2022-09-09T12:59:26;3.75;;;1.92;;
71381;SDS011;60099;45.660;13.804;2022-09-09T13:02:00;2.70;;;1.90;;
71381;SDS011;60099;45.660;13.804;2022-09-09T13:04:26;2.60;;;1.67;;
71381;SDS011;60099;45.660;13.804;2022-09-09T13:06:52;3.63;;;1.77;;
71381;SDS011;60099;45.660;13.804;2022-09-09T13:09:18;3.33;;;2.00;;
71381;SDS011;60099;45.660;13.804;2022-09-09T13:11:52;2.25;;;1.70;;
71381;SDS011;60099;45.660;13.804;2022-09-09T13:14:30;3.03;;;1.80;;
71381;SDS011;60099;45.660;13.804;2022-09-09T13:17:00;5.03;;;1.80;;
71381;SDS011;60099;45.660;13.804;2022-09-09T13:19:37;2.55;;;1.83;;
71381;SDS011;60099;45.660;13.804;2022-09-09T13:22:20;5.35;;;2.42;;
71381;SDS011;60099;45.660;13.804;2022-09-09T13:25:20;5.25;;;2.00;;
71381;SDS011;60099;45.660;13.804;2022-09-09T13:27:51;3.17;;;2.03;;
71381;SDS011;60099;45.660;13.804;2022-09-09T13:30:24;4.03;;;1.88;;
71381;SDS011;60099;45.660;13.804;2022-09-09T13:35:27;4.30;;;1.90;;
71381;SDS011;60099;45.660;13.804;2022-09-09T13:37:53;3.58;;;1.92;;
71381;SDS011;60099;45.660;13.804;2022-09-09T13:40:20;4.38;;;1.95;;
71381;SDS011;60099;45.660;13.804;2022-09-09T13:42:50;4.32;;;2.10;;
71381;SDS011;60099;45.660;13.804;2022-09-09T13:45:19;3.45;;;2.00;;
71381;SDS011;60099;45.660;13.804;2022-09-09T13:47:48;4.28;;;2.00;;
71381;SDS011;60099;45.660;13.804;2022-09-09T13:52:45;6.20;;;2.53;;
71381;SDS011;60099;45.660;13.804;2022-09-09T13:55:12;5.75;;;2.40;;
71381;SDS011;60099;45.660;13.804;2022-09-09T13:57:38;5.28;;;2.35;;
71381;SDS011;60099;45.660;13.804;2022-09-09T14:00:04;4.25;;;2.72;;
71381;SDS011;60099;45.660;13.804;2022-09-09T14:02:34;4.80;;;2.40;;
71381;SDS011;60099;45.660;13.804;2022-09-09T14:05:00;6.32;;;2.72;;
71381;SDS011;60099;45.660;13.804;2022-09-09T14:07:26;4.72;;;2.60;;
71381;SDS011;60099;45.660;13.804;2022-09-09T14:09:52;8.43;;;2.60;;
71381;SDS011;60099;45.660;13.804;2022-09-09T14:12:17;4.28;;;2.30;;
71381;SDS011;60099;45.660;13.804;2022-09-09T14:14:43;5.50;;;2.42;;
71381;SDS011;60099;45.660;13.804;2022-09-09T14:17:10;4.88;;;2.10;;
71381;SDS011;60099;45.660;13.804;2022-09-09T14:19:35;4.05;;;2.10;;
71381;SDS011;60099;45.660;13.804;2022-09-09T14:22:04;3.55;;;2.00;;
71381;SDS011;60099;45.660;13.804;2022-09-09T14:24:30;3.58;;;2.15;;
71381;SDS011;60099;45.660;13.804;2022-09-09T14:26:56;6.80;;;2.47;;
71381;SDS011;60099;45.660;13.804;2022-09-09T14:29:21;5.47;;;2.30;;
71381;SDS011;60099;45.660;13.804;2022-09-09T14:31:47;7.40;;;2.47;;
71381;SDS011;60099;45.660;13.804;2022-09-09T14:34:13;6.15;;;2.40;;
71381;SDS011;60099;45.660;13.804;2022-09-09T14:36:39;4.55;;;2.60;;
71381;SDS011;60099;45.660;13.804;2022-09-09T14:39:06;6.63;;;2.40;;
71381;SDS011;60099;45.660;13.804;2022-09-09T14:41:32;5.80;;;2.30;;
71381;SDS011;60099;45.660;13.804;2022-09-09T14:43:58;5.63;;;2.47;;
71381;SDS011;60099;45.660;13.804;2022-09-09T14:46:24;5.70;;;2.70;;
71381;SDS011;60099;45.660;13.804;2022-09-09T14:48:51;6.40;;;2.65;;
71381;SDS011;60099;45.660;13.804;2022-09-09T14:51:18;5.95;;;2.60;;
71381;SDS011;60099;45.660;13.804;2022-09-09T14:53:51;6.18;;;2.80;;
71381;SDS011;60099;45.660;13.804;2022-09-09T14:56:18;9.05;;;2.80;;
71381;SDS011;60099;45.660;13.804;2022-09-09T14:58:47;8.45;;;2.70;;
71381;SDS011;60099;45.660;13.804;2022-09-09T15:01:19;7.50;;;2.40;;
71381;SDS011;60099;45.660;13.804;2022-09-09T15:03:49;7.70;;;2.53;;
71381;SDS011;60099;45.660;13.804;2022-09-09T15:06:20;9.57;;;2.50;;
71381;SDS011;60099;45.660;13.804;2022-09-09T15:08:49;8.63;;;2.80;;
71381;SDS011;60099;45.660;13.804;2022-09-09T15:11:16;7.90;;;2.65;;
71381;SDS011;60099;45.660;13.804;2022-09-09T15:13:42;6.80;;;2.55;;
71381;SDS011;60099;45.660;13.804;2022-09-09T15:18:34;5.80;;;2.70;;
71381;SDS011;60099;45.660;13.804;2022-09-09T15:21:01;6.90;;;2.47;;
71381;SDS011;60099;45.660;13.804;2022-09-09T15:23:34;7.82;;;2.60;;
71381;SDS011;60099;45.660;13.804;2022-09-09T15:26:00;6.03;;;2.42;;
71381;SDS011;60099;45.660;13.804;2022-09-09T15:28:27;7.03;;;2.90;;
71381;SDS011;60099;45.660;13.804;2022-09-09T15:30:53;6.53;;;2.47;;
71381;SDS011;60099;45.660;13.804;2022-09-09T15:33:20;5.55;;;2.72;;
71381;SDS011;60099;45.660;13.804;2022-09-09T15:36:00;8.98;;;2.95;;
71381;SDS011;60099;45.660;13.804;2022-09-09T15:38:26;4.38;;;2.50;;
71381;SDS011;60099;45.660;13.804;2022-09-09T15:40:55;6.53;;;2.65;;
71381;SDS011;60099;45.660;13.804;2022-09-09T15:43:22;7.10;;;2.80;;
71381;SDS011;60099;45.660;13.804;2022-09-09T15:45:49;6.30;;;2.53;;
71381;SDS011;60099;45.660;13.804;2022-09-09T15:48:24;8.25;;;2.60;;
71381;SDS011;60099;45.660;13.804;2022-09-09T15:51:03;5.82;;;2.28;;
71381;SDS011;60099;45.660;13.804;2022-09-09T15:53:30;5.07;;;2.25;;
71381;SDS011;60099;45.660;13.804;2022-09-09T15:55:57;6.40;;;2.20;;
71381;SDS011;60099;45.660;13.804;2022-09-09T15:58:24;4.03;;;2.10;;
71381;SDS011;60099;45.660;13.804;2022-09-09T16:00:49;4.60;;;2.30;;
71381;SDS011;60099;45.660;13.804;2022-09-09T16:03:16;3.53;;;1.83;;
71381;SDS011;60099;45.660;13.804;2022-09-09T16:05:42;4.45;;;1.88;;
71381;SDS011;60099;45.660;13.804;2022-09-09T16:08:08;5.93;;;1.95;;
71381;SDS011;60099;45.660;13.804;2022-09-09T16:10:34;7.20;;;2.25;;
71381;SDS011;60099;45.660;13.804;2022-09-09T16:12:59;4.60;;;1.98;;
71381;SDS011;60099;45.660;13.804;2022-09-09T16:15:25;11.10;;;5.40;;
71381;SDS011;60099;45.660;13.804;2022-09-09T16:17:53;6.22;;;2.70;;
71381;SDS011;60099;45.660;13.804;2022-09-09T16:20:19;6.95;;;2.22;;
71381;SDS011;60099;45.660;13.804;2022-09-09T16:22:45;5.80;;;2.30;;
71381;SDS011;60099;45.660;13.804;2022-09-09T16:25:11;4.68;;;2.10;;
71381;SDS011;60099;45.660;13.804;2022-09-09T16:27:37;5.43;;;2.03;;
71381;SDS011;60099;45.660;13.804;2022-09-09T16:30:03;4.97;;;1.90;;
71381;SDS011;60099;45.660;13.804;2022-09-09T16:32:29;6.38;;;1.80;;
71381;SDS011;60099;45.660;13.804;2022-09-09T16:34:55;7.10;;;2.10;;
71381;SDS011;60099;45.660;13.804;2022-09-09T16:37:21;3.13;;;1.70;;
71381;SDS011;60099;45.660;13.804;2022-09-09T16:39:46;6.22;;;1.85;;
71381;SDS011;60099;45.660;13.804;2022-09-09T16:42:12;5.05;;;2.00;;
71381;SDS011;60099;45.660;13.804;2022-09-09T16:44:38;3.53;;;1.77;;
71381;SDS011;60099;45.660;13.804;2022-09-09T16:47:04;3.55;;;1.90;;
71381;SDS011;60099;45.660;13.804;2022-09-09T16:49:30;4.45;;;1.75;;
71381;SDS011;60099;45.660;13.804;2022-09-09T16:51:57;3.03;;;1.70;;
71381;SDS011;60099;45.660;13.804;2022-09-09T16:54:26;4.50;;;2.00;;
71381;SDS011;60099;45.660;13.804;2022-09-09T16:56:52;3.53;;;1.98;;
71381;SDS011;60099;45.660;13.804;2022-09-09T16:59:18;4.10;;;1.90;;
71381;SDS011;60099;45.660;13.804;2022-09-09T17:01:46;4.75;;;1.95;;
71381;SDS011;60099;45.660;13.804;2022-09-09T17:04:25;4.68;;;2.13;;
71381;SDS011;60099;45.660;13.804;2022-09-09T17:06:53;3.53;;;1.88;;
71381;SDS011;60099;45.660;13.804;2022-09-09T17:09:20;6.25;;;2.33;;
71381;SDS011;60099;45.660;13.804;2022-09-09T17:11:47;4.60;;;1.98;;
71381;SDS011;60099;45.660;13.804;2022-09-09T17:14:16;4.65;;;2.50;;
71381;SDS011;60099;45.660;13.804;2022-09-09T17:16:43;4.45;;;2.05;;
71381;SDS011;60099;45.660;13.804;2022-09-09T17:19:09;4.00;;;1.90;;
71381;SDS011;60099;45.660;13.804;2022-09-09T17:21:36;3.90;;;1.70;;
71381;SDS011;60099;45.660;13.804;2022-09-09T17:24:02;3.90;;;1.70;;
71381;SDS011;60099;45.660;13.804;2022-09-09T17:26:29;2.63;;;1.70;;
71381;SDS011;60099;45.660;13.804;2022-09-09T17:28:56;4.15;;;1.75;;
71381;SDS011;60099;45.660;13.804;2022-09-09T17:31:26;2.72;;;1.80;;
71381;SDS011;60099;45.660;13.804;2022-09-09T17:33:54;3.25;;;1.77;;
71381;SDS011;60099;45.660;13.804;2022-09-09T17:36:24;3.25;;;1.80;;
71381;SDS011;60099;45.660;13.804;2022-09-09T17:38:58;2.78;;;1.42;;
71381;SDS011;60099;45.660;13.804;2022-09-09T17:41:26;3.88;;;1.80;;
71381;SDS011;60099;45.660;13.804;2022-09-09T17:43:53;2.47;;;1.80;;
71381;SDS011;60099;45.660;13.804;2022-09-09T17:46:20;3.85;;;2.00;;
71381;SDS011;60099;45.660;13.804;2022-09-09T17:48:50;4.85;;;1.90;;
71381;SDS011;60099;45.660;13.804;2022-09-09T17:51:18;5.50;;;2.08;;
71381;SDS011;60099;45.660;13.804;2022-09-09T17:53:49;5.05;;;2.17;;
71381;SDS011;60099;45.660;13.804;2022-09-09T17:56:18;6.50;;;2.20;;
71381;SDS011;60099;45.660;13.804;2022-09-09T17:58:45;5.03;;;2.40;;
71381;SDS011;60099;45.660;13.804;2022-09-09T18:01:15;3.95;;;2.10;;
71381;SDS011;60099;45.660;13.804;2022-09-09T18:03:43;3.92;;;2.30;;
71381;SDS011;60099;45.660;13.804;2022-09-09T18:06:16;4.82;;;2.28;;
71381;SDS011;60099;45.660;13.804;2022-09-09T18:08:47;5.07;;;2.30;;
71381;SDS011;60099;45.660;13.804;2022-09-09T18:11:17;4.00;;;2.40;;